Time;durP1;ratioP1;P1;durP2;ratioP2;P2;SDS_P1;SDS_P2;PMS_P1;PMS_P2;Temp;Humidity;BMP_temperature;BMP_pressure;BME280_temperature;BME280_humidity;BME280_pressure;Samples;Min_cycle;Max_cycle;Signal;HPM_P1;HPM_P2
2022/12/16 00:00:20;;;;;;;17.48;10.88;;;;;;;;;;5005107;28;20790;-73
2022/12/16 00:02:47;;;;;;;16.75;10.75;;;;;;;;;;5006839;28;20092;-73
2022/12/16 00:05:13;;;;;;;16.35;11.73;;;;;;;;;;4989333;28;20034;-69
2022/12/16 00:07:39;;;;;;;19.80;11.52;;;;;;;;;;5006380;28;20030;-69
2022/12/16 00:10:05;;;;;;;18.13;10.20;;;;;;;;;;5006732;28;20125;-70
2022/12/16 00:12:31;;;;;;;15.63;10.05;;;;;;;;;;5004547;28;20581;-70
2022/12/16 00:14:57;;;;;;;17.90;10.95;;;;;;;;;;4989608;28;20091;-70
2022/12/16 00:17:23;;;;;;;17.92;10.00;;;;;;;;;;4984643;28;20189;-69
2022/12/16 00:19:49;;;;;;;16.35;9.45;;;;;;;;;;5006097;28;20038;-69
2022/12/16 00:22:15;;;;;;;15.95;9.70;;;;;;;;;;5007176;28;20066;-69
2022/12/16 00:24:41;;;;;;;15.68;10.32;;;;;;;;;;5008277;28;20517;-69
2022/12/16 00:27:07;;;;;;;17.27;9.15;;;;;;;;;;5005324;28;20041;-70
2022/12/16 00:29:33;;;;;;;15.85;8.82;;;;;;;;;;5005971;28;20442;-69
2022/12/16 00:32:01;;;;;;;17.63;9.38;;;;;;;;;;5007609;28;20156;-75
2022/12/16 00:34:27;;;;;;;12.68;8.68;;;;;;;;;;5006937;28;20034;-72
2022/12/16 00:36:53;;;;;;;17.90;9.65;;;;;;;;;;5006520;28;20048;-70
2022/12/16 00:39:19;;;;;;;17.13;10.05;;;;;;;;;;5009278;28;20509;-68
2022/12/16 00:41:49;;;;;;;12.43;8.55;;;;;;;;;;5004598;28;20041;-70
2022/12/16 00:44:15;;;;;;;10.80;7.85;;;;;;;;;;5007127;28;20038;-71
2022/12/16 00:46:42;;;;;;;16.52;7.97;;;;;;;;;;5003404;28;20454;-70
2022/12/16 00:49:08;;;;;;;11.02;7.82;;;;;;;;;;4989890;28;20521;-69
2022/12/16 00:51:34;;;;;;;18.83;7.63;;;;;;;;;;5005156;28;20017;-70
2022/12/16 00:54:00;;;;;;;14.32;9.15;;;;;;;;;;5008254;28;20395;-70
2022/12/16 00:56:26;;;;;;;17.88;9.10;;;;;;;;;;5008046;28;20471;-73
2022/12/16 00:58:52;;;;;;;10.55;7.50;;;;;;;;;;5006612;28;20034;-69
2022/12/16 01:01:18;;;;;;;15.23;8.18;;;;;;;;;;5008885;28;20131;-72
2022/12/16 01:03:44;;;;;;;25.42;7.65;;;;;;;;;;5006101;28;20053;-73
2022/12/16 01:06:12;;;;;;;16.13;7.93;;;;;;;;;;4990861;28;20041;-71
2022/12/16 01:08:38;;;;;;;22.98;7.95;;;;;;;;;;5005599;28;20359;-70
2022/12/16 01:11:04;;;;;;;13.55;7.63;;;;;;;;;;5005668;28;20037;-73
2022/12/16 01:13:30;;;;;;;15.10;7.63;;;;;;;;;;5004770;28;20194;-69
2022/12/16 01:15:59;;;;;;;14.48;7.35;;;;;;;;;;4989684;28;20029;-69
2022/12/16 01:18:25;;;;;;;15.88;7.88;;;;;;;;;;5007164;28;20030;-69
2022/12/16 01:20:51;;;;;;;14.43;7.43;;;;;;;;;;4987508;28;20474;-69
2022/12/16 01:23:17;;;;;;;15.48;7.18;;;;;;;;;;5004541;28;20128;-68
2022/12/16 01:25:43;;;;;;;19.52;7.68;;;;;;;;;;5005092;28;20041;-70
2022/12/16 01:28:10;;;;;;;17.52;8.10;;;;;;;;;;5006479;28;20036;-73
2022/12/16 01:30:36;;;;;;;21.30;7.53;;;;;;;;;;5004556;28;20038;-73
2022/12/16 01:33:02;;;;;;;11.10;6.95;;;;;;;;;;5007254;28;20029;-69
2022/12/16 01:35:28;;;;;;;16.70;6.88;;;;;;;;;;5005804;28;20034;-69
2022/12/16 01:37:54;;;;;;;13.30;8.00;;;;;;;;;;5006766;28;20046;-69
2022/12/16 01:40:23;;;;;;;13.45;6.47;;;;;;;;;;5005256;28;20030;-70
2022/12/16 01:42:49;;;;;;;14.80;6.93;;;;;;;;;;5003878;28;20056;-70
2022/12/16 01:45:27;;;;;;;16.08;6.68;;;;;;;;;;5003869;28;20022;-69
2022/12/16 01:47:54;;;;;;;11.02;6.25;;;;;;;;;;5004093;28;20097;-69
2022/12/16 01:50:20;;;;;;;13.73;6.90;;;;;;;;;;5006744;28;20064;-69
2022/12/16 01:52:49;;;;;;;14.55;6.45;;;;;;;;;;5006101;28;20038;-69
2022/12/16 01:55:19;;;;;;;12.15;6.93;;;;;;;;;;5003602;28;20022;-70
2022/12/16 01:57:47;;;;;;;10.40;5.82;;;;;;;;;;5004245;28;20026;-74
2022/12/16 02:00:13;;;;;;;12.75;5.88;;;;;;;;;;5004081;28;20749;-71
2022/12/16 02:05:19;;;;;;;11.68;7.13;;;;;;;;;;5267428;22;20057;-69
2022/12/16 02:07:54;;;;;;;15.30;6.38;;;;;;;;;;5011082;28;20037;-69
2022/12/16 02:10:25;;;;;;;15.18;6.75;;;;;;;;;;5018706;28;20033;-69
2022/12/16 02:13:07;;;;;;;14.88;5.78;;;;;;;;;;5029688;28;20025;-69
2022/12/16 02:15:33;;;;;;;16.53;6.60;;;;;;;;;;5027775;28;20041;-69
2022/12/16 02:18:02;;;;;;;13.63;6.68;;;;;;;;;;5029634;28;20032;-69
2022/12/16 02:20:34;;;;;;;9.65;6.40;;;;;;;;;;5028137;28;20089;-68
2022/12/16 02:23:16;;;;;;;12.80;6.68;;;;;;;;;;5031482;28;20028;-69
2022/12/16 02:25:42;;;;;;;13.23;6.93;;;;;;;;;;5031211;28;20025;-69
2022/12/16 02:28:17;;;;;;;17.40;6.68;;;;;;;;;;5033633;28;20075;-69
2022/12/16 02:31:00;;;;;;;13.35;6.75;;;;;;;;;;5030748;28;20033;-69
2022/12/16 02:33:45;;;;;;;14.45;7.97;;;;;;;;;;5013777;28;20076;-69
2022/12/16 02:36:29;;;;;;;13.82;6.25;;;;;;;;;;5028514;28;21959;-69
2022/12/16 02:38:58;;;;;;;11.77;6.20;;;;;;;;;;5032213;28;20413;-69
2022/12/16 02:41:25;;;;;;;10.70;6.07;;;;;;;;;;5024373;28;20037;-69
2022/12/16 02:43:57;;;;;;;11.27;6.38;;;;;;;;;;5032546;28;20049;-69
2022/12/16 02:46:25;;;;;;;12.63;6.78;;;;;;;;;;5029935;28;20517;-70
2022/12/16 02:48:51;;;;;;;12.88;6.53;;;;;;;;;;5033575;28;20508;-69
2022/12/16 02:51:17;;;;;;;14.93;6.65;;;;;;;;;;5031931;28;20056;-70
2022/12/16 02:53:45;;;;;;;10.75;5.60;;;;;;;;;;5032399;28;20034;-69
2022/12/16 02:56:33;;;;;;;13.45;6.25;;;;;;;;;;5033291;28;20108;-68
2022/12/16 02:59:11;;;;;;;13.77;6.50;;;;;;;;;;5017750;28;20022;-69
2022/12/16 03:01:46;;;;;;;13.10;6.28;;;;;;;;;;5035558;28;20033;-69
2022/12/16 03:04:16;;;;;;;9.85;6.57;;;;;;;;;;5032763;28;20128;-68
2022/12/16 03:06:44;;;;;;;14.38;6.75;;;;;;;;;;5020581;28;20148;-70
2022/12/16 03:09:12;;;;;;;10.23;6.63;;;;;;;;;;5032964;28;20018;-68
2022/12/16 03:11:41;;;;;;;13.02;7.03;;;;;;;;;;5028329;28;20037;-69
2022/12/16 03:14:10;;;;;;;11.52;5.90;;;;;;;;;;5014288;28;20464;-69
2022/12/16 03:16:36;;;;;;;11.68;6.35;;;;;;;;;;5023934;28;20030;-69
2022/12/16 03:19:03;;;;;;;12.48;5.90;;;;;;;;;;5031646;28;20041;-70
2022/12/16 03:21:31;;;;;;;14.95;6.88;;;;;;;;;;5031644;28;20033;-69
2022/12/16 03:24:00;;;;;;;14.00;7.32;;;;;;;;;;5029726;28;20389;-69
2022/12/16 03:26:29;;;;;;;12.93;7.05;;;;;;;;;;5032390;28;20032;-68
2022/12/16 03:29:00;;;;;;;15.18;6.55;;;;;;;;;;5032262;28;20096;-69
2022/12/16 03:31:31;;;;;;;13.63;6.75;;;;;;;;;;5035501;28;20035;-68
2022/12/16 03:34:12;;;;;;;12.60;6.07;;;;;;;;;;5029249;28;20033;-70
2022/12/16 03:36:39;;;;;;;13.00;6.43;;;;;;;;;;5030604;28;20057;-70
2022/12/16 03:39:06;;;;;;;10.48;6.20;;;;;;;;;;5028564;28;20039;-70
2022/12/16 03:41:33;;;;;;;17.30;6.75;;;;;;;;;;5028206;28;20041;-69
2022/12/16 03:43:59;;;;;;;14.50;7.40;;;;;;;;;;5031843;28;20029;-69
2022/12/16 03:46:26;;;;;;;15.23;6.93;;;;;;;;;;5034537;28;20024;-69
2022/12/16 03:48:52;;;;;;;15.13;6.60;;;;;;;;;;5031642;28;20081;-69
2022/12/16 03:51:19;;;;;;;11.95;6.65;;;;;;;;;;5026424;28;20042;-69
2022/12/16 03:53:46;;;;;;;14.88;6.68;;;;;;;;;;5027580;28;20029;-68
2022/12/16 03:56:12;;;;;;;11.30;6.95;;;;;;;;;;5030288;28;20033;-69
2022/12/16 03:58:39;;;;;;;13.40;6.93;;;;;;;;;;5030118;28;20029;-69
2022/12/16 04:01:06;;;;;;;13.82;7.28;;;;;;;;;;5032554;28;20033;-70
2022/12/16 04:03:32;;;;;;;13.02;6.32;;;;;;;;;;5024557;28;20465;-69
2022/12/16 04:05:58;;;;;;;10.13;6.45;;;;;;;;;;5030058;28;20057;-70
2022/12/16 04:08:24;;;;;;;15.25;6.43;;;;;;;;;;5020442;28;20025;-68
2022/12/16 04:24:35;;;;;;;11.00;7.15;;;;;;;;;;5025103;28;20505;-70
2022/12/16 04:34:24;;;;;;;14.25;6.65;;;;;;;;;;5031003;28;20110;-68
